Time;durP1;ratioP1;P1;durP2;ratioP2;P2;SDS_P1;SDS_P2;PMS_P1;PMS_P2;Temp;Humidity;BMP_temperature;BMP_pressure;BME280_temperature;BME280_humidity;BME280_pressure;Samples;Min_cycle;Max_cycle;Signal;HPM_P1;HPM_P2
2023/03/23 00:00:55;;;;;;;8.40;7.50;;;;;;;;;;5012921;28;20551;-67
2023/03/23 00:03:24;;;;;;;9.60;8.13;;;;;;;;;;4996583;28;20460;-67
2023/03/23 00:05:52;;;;;;;10.00;8.33;;;;;;;;;;4995245;28;20835;-67
2023/03/23 00:08:20;;;;;;;9.07;7.73;;;;;;;;;;4997598;28;20460;-67
2023/03/23 00:10:52;;;;;;;15.63;7.30;;;;;;;;;;4995075;28;20457;-67
2023/03/23 00:13:19;;;;;;;12.43;7.87;;;;;;;;;;4994958;28;20488;-67
2023/03/23 00:15:48;;;;;;;10.90;7.90;;;;;;;;;;4995631;28;20442;-67
2023/03/23 00:18:21;;;;;;;18.43;8.27;;;;;;;;;;4995342;28;21051;-67
2023/03/23 00:20:48;;;;;;;12.83;8.37;;;;;;;;;;5005852;28;20435;-67
2023/03/23 00:23:18;;;;;;;11.53;8.90;;;;;;;;;;5004042;28;20794;-67
2023/03/23 00:25:46;;;;;;;9.27;8.37;;;;;;;;;;5010056;28;20875;-67
2023/03/23 00:28:15;;;;;;;10.73;8.03;;;;;;;;;;5014758;28;20794;-67
2023/03/23 00:30:44;;;;;;;12.77;7.43;;;;;;;;;;5014301;28;20931;-67
2023/03/23 00:33:13;;;;;;;9.10;7.23;;;;;;;;;;5014673;28;20445;-67
2023/03/23 00:35:40;;;;;;;11.97;8.07;;;;;;;;;;5013909;28;20490;-67
2023/03/23 00:38:08;;;;;;;9.23;7.27;;;;;;;;;;5015145;28;20444;-67
2023/03/23 00:40:36;;;;;;;9.13;6.27;;;;;;;;;;5014360;28;20454;-67
2023/03/23 00:43:04;;;;;;;10.90;6.33;;;;;;;;;;5014326;28;20930;-67
2023/03/23 00:45:34;;;;;;;7.83;7.00;;;;;;;;;;5014426;28;20448;-67
2023/03/23 00:48:04;;;;;;;12.47;6.80;;;;;;;;;;5014479;28;20424;-67
2023/03/23 00:50:32;;;;;;;15.43;6.87;;;;;;;;;;5014169;28;20516;-67
2023/03/23 00:52:59;;;;;;;8.90;6.30;;;;;;;;;;5014846;28;20499;-67
2023/03/23 00:55:27;;;;;;;9.40;6.70;;;;;;;;;;5014263;28;20539;-67
2023/03/23 00:57:54;;;;;;;8.60;7.17;;;;;;;;;;5014151;28;20446;-68
2023/03/23 01:00:22;;;;;;;8.33;7.00;;;;;;;;;;5014336;28;20477;-68
2023/03/23 01:02:55;;;;;;;12.17;7.17;;;;;;;;;;4997528;28;20474;-67
2023/03/23 01:05:22;;;;;;;10.97;6.17;;;;;;;;;;4994530;28;20509;-68
2023/03/23 01:07:49;;;;;;;7.90;6.67;;;;;;;;;;4994978;28;20775;-68
2023/03/23 01:10:17;;;;;;;8.30;6.93;;;;;;;;;;4995349;28;20458;-68
2023/03/23 01:12:45;;;;;;;8.20;6.93;;;;;;;;;;4994098;28;20441;-68
2023/03/23 01:15:15;;;;;;;8.33;6.00;;;;;;;;;;4994140;28;20437;-68
2023/03/23 01:17:43;;;;;;;12.40;6.30;;;;;;;;;;4994700;28;20428;-68
2023/03/23 01:20:12;;;;;;;8.37;5.33;;;;;;;;;;4994499;28;20490;-68
2023/03/23 01:22:39;;;;;;;8.23;6.70;;;;;;;;;;4993337;28;20931;-67
2023/03/23 01:25:07;;;;;;;6.73;6.03;;;;;;;;;;4993507;28;20535;-67
2023/03/23 01:27:34;;;;;;;7.50;5.93;;;;;;;;;;5001279;28;20461;-69
2023/03/23 01:30:01;;;;;;;6.33;5.30;;;;;;;;;;5013712;28;20962;-68
2023/03/23 01:32:28;;;;;;;6.00;5.40;;;;;;;;;;5013690;28;20448;-68
2023/03/23 01:34:55;;;;;;;9.60;5.27;;;;;;;;;;5000518;28;20482;-68
2023/03/23 01:37:25;;;;;;;6.17;5.33;;;;;;;;;;4994062;28;20445;-68
2023/03/23 01:39:53;;;;;;;7.20;5.13;;;;;;;;;;4993927;28;20466;-68
2023/03/23 01:42:22;;;;;;;5.73;5.13;;;;;;;;;;5000110;28;20466;-68
2023/03/23 01:45:16;;;;;;;6.77;5.40;;;;;;;;;;5013384;28;20445;-67
2023/03/23 01:47:44;;;;;;;4.83;4.10;;;;;;;;;;4978430;28;20808;-67
2023/03/23 01:50:11;;;;;;;5.57;5.07;;;;;;;;;;5013146;28;20486;-68
2023/03/23 01:52:40;;;;;;;6.63;5.30;;;;;;;;;;5013436;28;20465;-67
2023/03/23 01:55:08;;;;;;;10.20;5.80;;;;;;;;;;5014273;28;20457;-67
2023/03/23 01:57:35;;;;;;;7.20;4.87;;;;;;;;;;5013209;28;20945;-68
2023/03/23 02:00:08;;;;;;;7.73;5.13;;;;;;;;;;5013479;28;20471;-68
2023/03/23 02:02:38;;;;;;;4.40;4.00;;;;;;;;;;4998842;28;20827;-67
2023/03/23 02:05:10;;;;;;;9.20;4.60;;;;;;;;;;4993733;28;20547;-67
2023/03/23 02:07:37;;;;;;;4.93;4.53;;;;;;;;;;4992988;28;20438;-68
2023/03/23 02:10:07;;;;;;;9.33;4.90;;;;;;;;;;4995457;28;20483;-68
2023/03/23 02:12:34;;;;;;;7.20;4.50;;;;;;;;;;4993437;28;20439;-68
2023/03/23 02:15:04;;;;;;;9.23;4.70;;;;;;;;;;4993300;28;20469;-68
2023/03/23 02:17:33;;;;;;;4.80;4.17;;;;;;;;;;4993317;28;20478;-68
2023/03/23 02:20:07;;;;;;;6.60;4.13;;;;;;;;;;4993098;28;20488;-68
2023/03/23 02:22:50;;;;;;;6.63;4.30;;;;;;;;;;4993136;28;20466;-68
2023/03/23 02:25:32;;;;;;;6.00;3.97;;;;;;;;;;4993203;28;20572;-68
2023/03/23 02:28:09;;;;;;;6.60;4.30;;;;;;;;;;4993007;28;20438;-67
2023/03/23 02:30:41;;;;;;;7.53;4.07;;;;;;;;;;4993173;28;20443;-68
2023/03/23 02:33:17;;;;;;;6.50;3.83;;;;;;;;;;4993338;28;20441;-68
2023/03/23 02:35:45;;;;;;;4.73;4.30;;;;;;;;;;4995659;28;20476;-68
2023/03/23 02:38:15;;;;;;;6.73;4.67;;;;;;;;;;4996916;28;20452;-69
2023/03/23 02:40:43;;;;;;;5.40;4.20;;;;;;;;;;4996669;28;20571;-68
2023/03/23 02:43:13;;;;;;;4.70;4.00;;;;;;;;;;4996713;28;20439;-68
2023/03/23 02:45:42;;;;;;;4.63;4.23;;;;;;;;;;4996851;28;20520;-68
2023/03/23 02:48:10;;;;;;;3.87;3.53;;;;;;;;;;4996973;28;20457;-67
2023/03/23 02:50:40;;;;;;;5.40;4.10;;;;;;;;;;4997072;28;20869;-68
2023/03/23 02:53:10;;;;;;;6.10;3.30;;;;;;;;;;4996996;28;20444;-67
2023/03/23 02:55:40;;;;;;;4.10;3.50;;;;;;;;;;4996871;28;20855;-68
2023/03/23 02:58:07;;;;;;;4.90;3.53;;;;;;;;;;4996874;28;20784;-69
2023/03/23 03:00:35;;;;;;;4.37;3.97;;;;;;;;;;4996216;28;20480;-68
2023/03/23 03:03:02;;;;;;;4.40;3.83;;;;;;;;;;4998979;28;20447;-68
2023/03/23 03:05:36;;;;;;;3.03;2.80;;;;;;;;;;4996575;28;20969;-68
2023/03/23 03:08:09;;;;;;;5.90;3.77;;;;;;;;;;4998046;28;20460;-68
2023/03/23 03:10:39;;;;;;;7.97;3.60;;;;;;;;;;4996403;28;20456;-68
2023/03/23 03:13:08;;;;;;;3.20;3.00;;;;;;;;;;4996563;28;20452;-68
2023/03/23 03:15:38;;;;;;;3.63;2.90;;;;;;;;;;4996790;28;21014;-68
2023/03/23 03:18:08;;;;;;;3.37;2.97;;;;;;;;;;4995953;28;20468;-69
2023/03/23 03:20:37;;;;;;;3.03;2.73;;;;;;;;;;4996150;28;20467;-67
2023/03/23 03:23:07;;;;;;;4.07;2.87;;;;;;;;;;4996342;28;20445;-68
2023/03/23 03:25:36;;;;;;;5.73;3.13;;;;;;;;;;4996235;28;20967;-67
2023/03/23 03:28:04;;;;;;;2.70;2.50;;;;;;;;;;4996248;28;20444;-69
2023/03/23 03:30:34;;;;;;;3.60;3.17;;;;;;;;;;4996251;28;20452;-68
2023/03/23 03:33:02;;;;;;;3.20;2.77;;;;;;;;;;4996344;28;20454;-68
2023/03/23 03:35:31;;;;;;;2.60;2.40;;;;;;;;;;4995900;28;20575;-68
2023/03/23 03:38:00;;;;;;;3.40;2.60;;;;;;;;;;4996104;28;20480;-68
2023/03/23 03:40:27;;;;;;;3.23;2.93;;;;;;;;;;4995632;28;20476;-68
2023/03/23 03:42:56;;;;;;;3.33;3.03;;;;;;;;;;4996001;28;20481;-69
2023/03/23 03:45:23;;;;;;;5.50;3.20;;;;;;;;;;4995854;28;20449;-67
2023/03/23 03:47:50;;;;;;;2.70;2.50;;;;;;;;;;4995171;28;20444;-68
2023/03/23 03:50:17;;;;;;;3.77;2.87;;;;;;;;;;4996431;28;20832;-69
2023/03/23 03:52:45;;;;;;;5.60;3.30;;;;;;;;;;4995919;28;20445;-69
2023/03/23 03:55:12;;;;;;;3.30;3.00;;;;;;;;;;4996083;28;20444;-69
2023/03/23 03:57:41;;;;;;;3.07;2.87;;;;;;;;;;4995843;28;20465;-69
2023/03/23 04:00:14;;;;;;;3.33;3.10;;;;;;;;;;4995606;28;20537;-69
2023/03/23 04:02:41;;;;;;;3.53;3.23;;;;;;;;;;4997524;28;20453;-70
2023/03/23 04:05:09;;;;;;;3.23;2.90;;;;;;;;;;4995687;28;20538;-68
2023/03/23 04:07:39;;;;;;;3.30;3.00;;;;;;;;;;4995240;28;20449;-71
2023/03/23 04:10:06;;;;;;;4.60;3.30;;;;;;;;;;4995343;28;20453;-69
2023/03/23 04:12:34;;;;;;;3.53;2.93;;;;;;;;;;4999303;28;20468;-69
2023/03/23 04:15:01;;;;;;;3.63;3.03;;;;;;;;;;5014721;28;20922;-69
2023/03/23 04:17:29;;;;;;;3.60;3.30;;;;;;;;;;5015011;28;20793;-67
2023/03/23 04:19:58;;;;;;;3.83;3.50;;;;;;;;;;5014533;28;20487;-69
2023/03/23 04:22:29;;;;;;;6.67;3.47;;;;;;;;;;5015252;28;20532;-70
2023/03/23 04:24:58;;;;;;;3.23;3.00;;;;;;;;;;5014597;28;20444;-69
2023/03/23 04:27:27;;;;;;;3.30;3.00;;;;;;;;;;5014370;28;20475;-68
2023/03/23 04:29:54;;;;;;;4.13;3.40;;;;;;;;;;5014789;28;20947;-69
2023/03/23 04:32:22;;;;;;;3.50;3.10;;;;;;;;;;5014395;28;20943;-68
2023/03/23 04:34:50;;;;;;;3.20;2.90;;;;;;;;;;5014357;28;20477;-67
2023/03/23 04:37:18;;;;;;;10.33;3.43;;;;;;;;;;5014513;28;20442;-70
2023/03/23 04:39:46;;;;;;;2.97;2.77;;;;;;;;;;5015117;28;20485;-69
2023/03/23 04:42:14;;;;;;;4.13;2.83;;;;;;;;;;5014162;28;20447;-68
2023/03/23 04:44:43;;;;;;;3.10;2.70;;;;;;;;;;5014226;28;20520;-69
2023/03/23 04:47:10;;;;;;;6.83;2.77;;;;;;;;;;5011554;28;20467;-70
2023/03/23 04:49:37;;;;;;;5.97;2.90;;;;;;;;;;5004245;28;20534;-68
2023/03/23 04:52:06;;;;;;;3.20;2.90;;;;;;;;;;5001748;28;20437;-68
2023/03/23 04:54:33;;;;;;;3.00;2.80;;;;;;;;;;5013780;28;20440;-68
2023/03/23 04:57:00;;;;;;;2.90;2.60;;;;;;;;;;5000162;28;20450;-68
2023/03/23 04:59:28;;;;;;;3.30;3.00;;;;;;;;;;4994428;28;20447;-68
2023/03/23 05:01:55;;;;;;;2.90;2.60;;;;;;;;;;4994208;28;20446;-68
2023/03/23 05:04:24;;;;;;;3.30;3.00;;;;;;;;;;4993610;28;20477;-68
2023/03/23 05:06:52;;;;;;;3.43;2.70;;;;;;;;;;5002311;28;20463;-68
2023/03/23 05:09:20;;;;;;;5.03;3.40;;;;;;;;;;5013270;28;20433;-68
2023/03/23 05:11:48;;;;;;;3.63;3.23;;;;;;;;;;5013355;28;20448;-68
2023/03/23 05:14:15;;;;;;;3.30;3.07;;;;;;;;;;5013173;28;20920;-68
2023/03/23 05:16:47;;;;;;;3.90;3.03;;;;;;;;;;5013388;28;20444;-68
2023/03/23 05:19:14;;;;;;;3.80;3.17;;;;;;;;;;5013548;28;20440;-69
2023/03/23 05:21:41;;;;;;;2.80;2.60;;;;;;;;;;5013468;28;20472;-68
2023/03/23 05:24:08;;;;;;;5.10;2.90;;;;;;;;;;5012934;28;20929;-70
2023/03/23 05:26:37;;;;;;;3.37;3.07;;;;;;;;;;5013357;28;20941;-74
2023/03/23 05:29:04;;;;;;;4.37;3.37;;;;;;;;;;5013770;28;20449;-70
2023/03/23 05:31:32;;;;;;;4.73;3.43;;;;;;;;;;5013679;28;20457;-70
2023/03/23 05:33:59;;;;;;;4.33;3.93;;;;;;;;;;5013786;28;20448;-69
2023/03/23 05:36:26;;;;;;;3.30;3.00;;;;;;;;;;5013446;28;20970;-70
2023/03/23 05:38:53;;;;;;;4.20;3.73;;;;;;;;;;5013217;28;20450;-72
2023/03/23 05:41:20;;;;;;;5.70;3.70;;;;;;;;;;5013002;28;20488;-70
2023/03/23 05:43:49;;;;;;;6.37;3.87;;;;;;;;;;5013258;28;20531;-69
2023/03/23 05:46:16;;;;;;;4.20;3.47;;;;;;;;;;5012918;28;20933;-69
2023/03/23 05:48:43;;;;;;;4.70;3.50;;;;;;;;;;5013215;28;20921;-69
2023/03/23 05:51:10;;;;;;;5.57;3.80;;;;;;;;;;5013439;28;20453;-69
2023/03/23 05:53:38;;;;;;;6.83;4.03;;;;;;;;;;5012796;28;20449;-70
2023/03/23 05:56:06;;;;;;;3.60;3.30;;;;;;;;;;5013378;28;20530;-69
2023/03/23 05:58:33;;;;;;;5.17;4.20;;;;;;;;;;5013089;28;20941;-69
2023/03/23 06:01:02;;;;;;;5.20;4.10;;;;;;;;;;5013611;28;20493;-69
2023/03/23 06:03:30;;;;;;;4.33;3.93;;;;;;;;;;5012924;28;20446;-69
2023/03/23 06:05:57;;;;;;;4.47;3.67;;;;;;;;;;5013485;28;20453;-69
2023/03/23 06:08:24;;;;;;;3.57;3.27;;;;;;;;;;5013289;28;20444;-69
2023/03/23 06:10:52;;;;;;;4.00;3.03;;;;;;;;;;5016765;28;20447;-69
2023/03/23 06:13:19;;;;;;;3.37;3.10;;;;;;;;;;5016891;28;20453;-69
2023/03/23 06:15:46;;;;;;;10.10;4.27;;;;;;;;;;5017190;28;20436;-69
2023/03/23 06:18:15;;;;;;;4.00;3.30;;;;;;;;;;5016928;28;20535;-69
2023/03/23 06:20:43;;;;;;;5.33;3.97;;;;;;;;;;5017147;28;20556;-69
2023/03/23 06:23:11;;;;;;;10.50;3.87;;;;;;;;;;5006276;28;20457;-70
2023/03/23 06:25:39;;;;;;;3.57;3.23;;;;;;;;;;4996854;28;20473;-69
2023/03/23 06:28:06;;;;;;;3.87;3.57;;;;;;;;;;4997242;28;20450;-69
2023/03/23 06:30:33;;;;;;;6.03;4.00;;;;;;;;;;4997237;28;20787;-69
2023/03/23 06:33:02;;;;;;;4.83;4.10;;;;;;;;;;4997159;28;20452;-69
2023/03/23 06:35:30;;;;;;;4.50;3.50;;;;;;;;;;4997000;28;21046;-69
2023/03/23 06:38:01;;;;;;;4.30;3.90;;;;;;;;;;4997105;28;20464;-69
2023/03/23 06:40:28;;;;;;;5.40;3.77;;;;;;;;;;4997056;28;20884;-69
2023/03/23 06:42:55;;;;;;;6.27;3.63;;;;;;;;;;4996527;28;20962;-69
2023/03/23 06:45:22;;;;;;;4.10;3.10;;;;;;;;;;4996642;28;20441;-69
2023/03/23 06:47:50;;;;;;;7.63;4.30;;;;;;;;;;4996916;28;20445;-69
2023/03/23 06:50:17;;;;;;;7.43;3.97;;;;;;;;;;4996451;28;20499;-69
2023/03/23 06:52:48;;;;;;;6.27;4.23;;;;;;;;;;4996463;28;21005;-69
2023/03/23 06:55:15;;;;;;;4.93;4.20;;;;;;;;;;4996480;28;20434;-69
2023/03/23 06:57:43;;;;;;;4.70;3.53;;;;;;;;;;4996482;28;20541;-69
2023/03/23 07:00:12;;;;;;;4.17;3.43;;;;;;;;;;4996474;28;20449;-69
2023/03/23 07:02:40;;;;;;;5.50;3.90;;;;;;;;;;4996215;28;20439;-70
2023/03/23 07:05:08;;;;;;;3.83;3.53;;;;;;;;;;4996303;28;20461;-70
2023/03/23 07:07:36;;;;;;;7.37;4.00;;;;;;;;;;4996447;28;20446;-69
2023/03/23 07:10:05;;;;;;;9.50;3.73;;;;;;;;;;4996387;28;20451;-70
2023/03/23 07:12:33;;;;;;;7.13;3.83;;;;;;;;;;4996462;28;20447;-70
2023/03/23 07:15:00;;;;;;;4.63;3.90;;;;;;;;;;4996388;28;20474;-69
2023/03/23 07:17:28;;;;;;;6.30;4.50;;;;;;;;;;4996102;28;20455;-70
2023/03/23 07:19:55;;;;;;;6.80;4.23;;;;;;;;;;4995969;28;20476;-70
2023/03/23 07:22:22;;;;;;;4.80;3.97;;;;;;;;;;4994640;28;20841;-70
2023/03/23 07:24:49;;;;;;;5.27;3.90;;;;;;;;;;4995978;28;20454;-70
2023/03/23 07:27:19;;;;;;;5.23;3.47;;;;;;;;;;5002325;28;20469;-72
2023/03/23 07:29:46;;;;;;;4.37;3.50;;;;;;;;;;5015556;28;20476;-70
2023/03/23 07:32:13;;;;;;;4.53;3.20;;;;;;;;;;5015366;28;20532;-70
2023/03/23 07:34:41;;;;;;;5.17;4.07;;;;;;;;;;5009587;28;20492;-70
2023/03/23 07:37:08;;;;;;;4.43;4.03;;;;;;;;;;4996067;28;20529;-70
2023/03/23 07:39:36;;;;;;;5.93;3.40;;;;;;;;;;4995341;28;20451;-70
2023/03/23 07:42:03;;;;;;;8.57;3.77;;;;;;;;;;4995906;28;20833;-70
2023/03/23 07:44:32;;;;;;;5.83;3.53;;;;;;;;;;4996333;28;20530;-70
2023/03/23 07:47:00;;;;;;;6.37;3.63;;;;;;;;;;4995006;28;20554;-69
2023/03/23 07:49:27;;;;;;;7.03;4.10;;;;;;;;;;4995682;28;20502;-70
2023/03/23 07:51:55;;;;;;;5.67;2.97;;;;;;;;;;4995910;28;20489;-70
2023/03/23 07:54:22;;;;;;;8.20;3.97;;;;;;;;;;4995789;28;20449;-70
2023/03/23 07:56:50;;;;;;;7.50;4.00;;;;;;;;;;4995709;28;20450;-70
2023/03/23 07:59:18;;;;;;;5.43;3.70;;;;;;;;;;4995785;28;20444;-70
2023/03/23 08:01:46;;;;;;;5.87;3.83;;;;;;;;;;4995423;28;20481;-70
2023/03/23 08:04:15;;;;;;;6.50;4.00;;;;;;;;;;4995723;28;20445;-69
2023/03/23 08:06:42;;;;;;;5.40;3.37;;;;;;;;;;4994545;28;20958;-70
2023/03/23 08:09:10;;;;;;;4.57;4.10;;;;;;;;;;4995155;28;20479;-70
2023/03/23 08:11:37;;;;;;;5.40;3.53;;;;;;;;;;4994801;28;20482;-70
2023/03/23 08:14:05;;;;;;;3.87;3.57;;;;;;;;;;4995099;28;20530;-69
2023/03/23 08:16:32;;;;;;;4.43;2.67;;;;;;;;;;5014110;28;20449;-70
2023/03/23 08:19:02;;;;;;;7.23;3.40;;;;;;;;;;5015040;28;20501;-70
2023/03/23 08:21:29;;;;;;;9.77;4.10;;;;;;;;;;5014308;28;20482;-70
2023/03/23 08:23:56;;;;;;;3.67;3.33;;;;;;;;;;5011869;28;20502;-69
2023/03/23 08:26:23;;;;;;;4.10;3.20;;;;;;;;;;5012847;28;20550;-70
2023/03/23 08:28:51;;;;;;;3.30;3.00;;;;;;;;;;5013247;28;20858;-69
2023/03/23 08:31:18;;;;;;;3.90;3.00;;;;;;;;;;5013486;28;20811;-70
2023/03/23 08:33:46;;;;;;;5.47;3.40;;;;;;;;;;5013579;28;20450;-70
2023/03/23 08:36:14;;;;;;;7.20;3.93;;;;;;;;;;5013041;28;20805;-69
2023/03/23 08:38:43;;;;;;;7.93;4.10;;;;;;;;;;5014298;28;20447;-69
2023/03/23 08:41:10;;;;;;;3.10;2.67;;;;;;;;;;5013946;28;20508;-70
2023/03/23 08:43:39;;;;;;;5.07;3.37;;;;;;;;;;5014090;28;20442;-69
2023/03/23 08:46:09;;;;;;;5.80;3.20;;;;;;;;;;5013164;28;20487;-69
2023/03/23 08:48:36;;;;;;;6.40;3.57;;;;;;;;;;5013218;28;20445;-69
2023/03/23 08:51:04;;;;;;;6.30;3.17;;;;;;;;;;5013523;28;20454;-70
2023/03/23 08:53:34;;;;;;;6.77;4.00;;;;;;;;;;5014131;28;20450;-69
2023/03/23 08:56:04;;;;;;;3.73;3.27;;;;;;;;;;5013215;28;20486;-70
2023/03/23 08:58:32;;;;;;;8.50;3.77;;;;;;;;;;5013530;28;20434;-70
2023/03/23 09:00:59;;;;;;;16.13;3.83;;;;;;;;;;5013796;28;20537;-70
2023/03/23 09:03:27;;;;;;;7.30;3.30;;;;;;;;;;5013822;28;20461;-70
2023/03/23 09:05:54;;;;;;;4.07;2.73;;;;;;;;;;5013966;28;20482;-69
2023/03/23 09:08:21;;;;;;;4.47;3.70;;;;;;;;;;5013421;28;20954;-69
2023/03/23 09:10:50;;;;;;;5.83;3.13;;;;;;;;;;5013395;28;20446;-69
2023/03/23 09:13:17;;;;;;;7.20;3.43;;;;;;;;;;5013287;28;20508;-70
2023/03/23 09:15:44;;;;;;;6.33;3.60;;;;;;;;;;5012880;28;20441;-70
2023/03/23 09:18:12;;;;;;;7.50;4.33;;;;;;;;;;5013815;28;20452;-69
2023/03/23 09:20:39;;;;;;;6.23;3.43;;;;;;;;;;5013606;28;20435;-69
2023/03/23 09:23:07;;;;;;;5.13;3.97;;;;;;;;;;5013185;28;20986;-69
2023/03/23 09:25:34;;;;;;;4.20;3.70;;;;;;;;;;5013253;28;20961;-69
2023/03/23 09:28:03;;;;;;;5.30;3.67;;;;;;;;;;5013577;28;20837;-69
2023/03/23 09:30:31;;;;;;;8.30;3.60;;;;;;;;;;5013816;28;20862;-69
2023/03/23 09:33:00;;;;;;;7.00;4.23;;;;;;;;;;5013737;28;20447;-68
2023/03/23 09:35:27;;;;;;;4.60;3.70;;;;;;;;;;5013629;28;20536;-69
2023/03/23 09:37:56;;;;;;;7.63;4.03;;;;;;;;;;5013771;28;20449;-69
2023/03/23 09:40:24;;;;;;;10.30;4.37;;;;;;;;;;5013398;28;20457;-69
2023/03/23 09:42:57;;;;;;;7.37;3.97;;;;;;;;;;5013690;28;20510;-69
2023/03/23 09:45:28;;;;;;;8.47;3.80;;;;;;;;;;5012928;28;20436;-69
2023/03/23 09:48:05;;;;;;;4.40;2.70;;;;;;;;;;5013297;28;20440;-69
2023/03/23 09:50:33;;;;;;;5.13;2.43;;;;;;;;;;5013347;28;20431;-69
2023/03/23 09:53:03;;;;;;;7.00;1.77;;;;;;;;;;5013525;28;20527;-69
2023/03/23 09:55:30;;;;;;;2.23;1.97;;;;;;;;;;5013766;28;20864;-69
2023/03/23 09:58:02;;;;;;;1.13;1.10;;;;;;;;;;5013530;28;20436;-69
2023/03/23 10:00:33;;;;;;;1.40;1.30;;;;;;;;;;5013336;28;21019;-69
2023/03/23 10:03:02;;;;;;;2.20;1.10;;;;;;;;;;5013520;28;20477;-69
2023/03/23 10:05:34;;;;;;;1.20;1.10;;;;;;;;;;5013946;28;20452;-69
2023/03/23 10:08:02;;;;;;;5.80;1.30;;;;;;;;;;5013450;28;20778;-68
2023/03/23 10:10:33;;;;;;;1.30;1.20;;;;;;;;;;5013486;28;20196;-69
2023/03/23 10:13:03;;;;;;;1.92;1.30;;;;;;;;;;5013604;28;20608;-68
2023/03/23 10:15:34;;;;;;;2.07;1.50;;;;;;;;;;5013136;28;20707;-68
2023/03/23 10:18:02;;;;;;;3.53;1.73;;;;;;;;;;5013618;28;20881;-68
2023/03/23 10:20:39;;;;;;;1.60;1.50;;;;;;;;;;5013510;28;20447;-70
2023/03/23 10:23:15;;;;;;;1.30;1.20;;;;;;;;;;5013460;28;20502;-68
2023/03/23 10:25:43;;;;;;;1.47;1.37;;;;;;;;;;5013378;28;20438;-69
2023/03/23 10:28:13;;;;;;;1.27;1.17;;;;;;;;;;5013259;28;20440;-69
2023/03/23 10:30:43;;;;;;;2.17;1.30;;;;;;;;;;5013315;28;20552;-69
2023/03/23 10:33:14;;;;;;;2.73;1.60;;;;;;;;;;5013154;28;20443;-69
2023/03/23 10:35:44;;;;;;;2.10;1.30;;;;;;;;;;5013058;28;20486;-71
2023/03/23 10:38:13;;;;;;;1.80;1.37;;;;;;;;;;5012816;28;20440;-70
2023/03/23 10:40:47;;;;;;;1.57;1.27;;;;;;;;;;5013222;28;20925;-70
2023/03/23 10:43:15;;;;;;;4.57;1.67;;;;;;;;;;5013366;28;20473;-70
2023/03/23 10:45:46;;;;;;;2.00;1.40;;;;;;;;;;5013118;28;20449;-70
2023/03/23 10:48:17;;;;;;;1.80;1.70;;;;;;;;;;5012755;28;20964;-70
2023/03/23 10:50:46;;;;;;;2.13;1.60;;;;;;;;;;5013358;28;20496;-70
2023/03/23 10:53:16;;;;;;;2.23;2.03;;;;;;;;;;5012979;28;20448;-70
2023/03/23 10:55:44;;;;;;;3.13;1.83;;;;;;;;;;5013720;28;20508;-70
2023/03/23 10:58:12;;;;;;;5.23;2.53;;;;;;;;;;5015926;28;20932;-70
2023/03/23 11:00:43;;;;;;;3.87;1.80;;;;;;;;;;5016232;28;20969;-70
2023/03/23 11:03:25;;;;;;;1.93;1.60;;;;;;;;;;5016625;28;20901;-70
2023/03/23 11:05:54;;;;;;;4.97;1.90;;;;;;;;;;5016404;28;20495;-70
2023/03/23 11:08:22;;;;;;;2.93;2.03;;;;;;;;;;5016690;28;20435;-70
2023/03/23 11:10:51;;;;;;;1.53;1.43;;;;;;;;;;5015877;28;20496;-70
2023/03/23 11:13:20;;;;;;;1.67;1.50;;;;;;;;;;5015985;28;20447;-70
2023/03/23 11:15:48;;;;;;;4.60;1.80;;;;;;;;;;5016209;28;20451;-73
2023/03/23 11:18:20;;;;;;;1.93;1.70;;;;;;;;;;5008482;28;20472;-71
2023/03/23 11:20:51;;;;;;;6.10;1.87;;;;;;;;;;4995313;28;20539;-70
2023/03/23 11:23:22;;;;;;;6.67;1.97;;;;;;;;;;4995786;28;21064;-70
2023/03/23 11:25:57;;;;;;;2.87;1.70;;;;;;;;;;4996566;28;20446;-70
2023/03/23 11:28:28;;;;;;;2.90;1.60;;;;;;;;;;4999733;28;20454;-69
2023/03/23 11:30:55;;;;;;;3.43;1.50;;;;;;;;;;5015567;28;20446;-69
2023/03/23 11:33:25;;;;;;;6.17;1.97;;;;;;;;;;5015211;28;20454;-69
2023/03/23 11:35:56;;;;;;;2.80;1.60;;;;;;;;;;5015015;28;20535;-70
2023/03/23 11:38:25;;;;;;;2.83;1.93;;;;;;;;;;5014820;28;20486;-70
2023/03/23 11:40:53;;;;;;;1.70;1.60;;;;;;;;;;5015384;28;20531;-70
2023/03/23 11:43:22;;;;;;;11.30;2.77;;;;;;;;;;5014966;28;20475;-70
2023/03/23 11:45:51;;;;;;;3.43;1.43;;;;;;;;;;5014935;28;20885;-70
2023/03/23 11:48:21;;;;;;;6.20;2.27;;;;;;;;;;5015149;28;21000;-71
2023/03/23 11:50:51;;;;;;;3.27;1.60;;;;;;;;;;5015094;28;20829;-72
2023/03/23 11:53:27;;;;;;;4.47;1.90;;;;;;;;;;5015240;28;20456;-70
2023/03/23 11:56:01;;;;;;;3.87;2.27;;;;;;;;;;5015365;28;20437;-70
2023/03/23 11:58:32;;;;;;;2.67;1.40;;;;;;;;;;5014903;28;20781;-71
2023/03/23 12:01:00;;;;;;;6.40;1.67;;;;;;;;;;5015047;28;20434;-69
2023/03/23 12:03:33;;;;;;;2.70;1.70;;;;;;;;;;5014990;28;20480;-70
2023/03/23 12:06:03;;;;;;;1.93;1.70;;;;;;;;;;5015497;28;20460;-70
2023/03/23 12:08:48;;;;;;;3.50;1.93;;;;;;;;;;5014246;28;20441;-69
2023/03/23 12:11:19;;;;;;;2.60;1.77;;;;;;;;;;5015234;28;20432;-69
2023/03/23 12:14:00;;;;;;;2.97;1.90;;;;;;;;;;5015039;28;20832;-69
2023/03/23 12:16:33;;;;;;;5.73;2.00;;;;;;;;;;5014594;28;20433;-70
2023/03/23 12:19:06;;;;;;;2.33;1.60;;;;;;;;;;5014319;28;20434;-70
2023/03/23 12:21:38;;;;;;;1.67;1.27;;;;;;;;;;5014926;28;20435;-69
2023/03/23 12:24:15;;;;;;;3.07;1.67;;;;;;;;;;5014809;28;20495;-71
2023/03/23 12:26:47;;;;;;;3.83;1.60;;;;;;;;;;5014956;28;20464;-71
2023/03/23 12:29:18;;;;;;;2.53;2.00;;;;;;;;;;5014600;28;20442;-69
2023/03/23 12:31:51;;;;;;;3.77;1.70;;;;;;;;;;5014950;28;20434;-71
2023/03/23 12:34:21;;;;;;;4.40;1.63;;;;;;;;;;5013878;28;20449;-71
2023/03/23 12:36:55;;;;;;;2.30;1.67;;;;;;;;;;5014450;28;20433;-72
2023/03/23 12:39:50;;;;;;;3.27;1.60;;;;;;;;;;5014387;28;20504;-71
2023/03/23 12:42:22;;;;;;;4.80;1.70;;;;;;;;;;5014478;28;20468;-71
2023/03/23 12:44:51;;;;;;;1.57;1.47;;;;;;;;;;5014698;28;20480;-71
2023/03/23 12:47:33;;;;;;;1.73;1.60;;;;;;;;;;5014387;28;20449;-70
2023/03/23 12:50:03;;;;;;;1.60;1.50;;;;;;;;;;5012262;28;20468;-70
2023/03/23 12:52:32;;;;;;;2.00;1.83;;;;;;;;;;5013984;28;20481;-70
2023/03/23 12:55:03;;;;;;;2.07;1.87;;;;;;;;;;5014089;28;20450;-71
2023/03/23 12:57:32;;;;;;;3.53;2.03;;;;;;;;;;5013706;28;20965;-70
2023/03/23 13:00:10;;;;;;;2.10;1.90;;;;;;;;;;5013606;28;20449;-70
2023/03/23 13:02:41;;;;;;;4.23;2.17;;;;;;;;;;5014153;28;20467;-70
2023/03/23 13:05:10;;;;;;;2.40;1.80;;;;;;;;;;5013977;28;20455;-71
2023/03/23 13:07:43;;;;;;;4.57;2.10;;;;;;;;;;5013849;28;20859;-70
2023/03/23 13:10:19;;;;;;;2.77;2.57;;;;;;;;;;5013568;28;20437;-70
2023/03/23 13:12:46;;;;;;;3.10;2.77;;;;;;;;;;5013767;28;20520;-70
2023/03/23 13:15:20;;;;;;;2.70;2.50;;;;;;;;;;5013221;28;20460;-71
2023/03/23 13:17:51;;;;;;;2.90;2.60;;;;;;;;;;5013399;28;20438;-70
2023/03/23 13:20:34;;;;;;;2.23;2.03;;;;;;;;;;5013161;28;20445;-70
2023/03/23 13:23:05;;;;;;;4.23;3.10;;;;;;;;;;5013768;28;20470;-70
2023/03/23 13:25:45;;;;;;;3.20;3.00;;;;;;;;;;5013236;28;20525;-70
2023/03/23 13:28:16;;;;;;;4.23;3.40;;;;;;;;;;5013683;28;20456;-70
2023/03/23 13:30:54;;;;;;;4.00;3.60;;;;;;;;;;5013820;28;20458;-70
2023/03/23 13:33:22;;;;;;;3.53;3.20;;;;;;;;;;5014166;28;20441;-70
2023/03/23 13:35:50;;;;;;;4.57;3.73;;;;;;;;;;5013367;28;20496;-70
2023/03/23 13:38:21;;;;;;;4.80;4.33;;;;;;;;;;5013233;28;20446;-70
2023/03/23 13:40:50;;;;;;;4.60;4.30;;;;;;;;;;5013152;28;20429;-69
2023/03/23 13:43:27;;;;;;;5.20;4.80;;;;;;;;;;5013557;28;20486;-70
2023/03/23 13:45:55;;;;;;;5.47;4.97;;;;;;;;;;5013520;28;20446;-70
2023/03/23 13:48:25;;;;;;;6.83;5.10;;;;;;;;;;5013288;28;20462;-70
2023/03/23 13:50:53;;;;;;;5.00;4.47;;;;;;;;;;5013074;28;20446;-70
2023/03/23 13:53:25;;;;;;;5.87;5.37;;;;;;;;;;5012918;28;20500;-69
2023/03/23 13:56:05;;;;;;;5.20;4.90;;;;;;;;;;5012824;28;20501;-70
2023/03/23 13:58:32;;;;;;;8.70;6.13;;;;;;;;;;5012852;28;20928;-70
2023/03/23 14:01:11;;;;;;;7.63;5.30;;;;;;;;;;5012772;28;20540;-70
2023/03/23 14:03:40;;;;;;;6.67;6.07;;;;;;;;;;5013514;28;20481;-69
2023/03/23 14:06:08;;;;;;;6.17;5.67;;;;;;;;;;5013348;28;20546;-70
2023/03/23 14:08:40;;;;;;;7.67;5.90;;;;;;;;;;5013414;28;20450;-70
2023/03/23 14:11:14;;;;;;;6.40;5.77;;;;;;;;;;5012940;28;20529;-70
2023/03/23 14:13:44;;;;;;;6.90;6.10;;;;;;;;;;5014207;28;20423;-70
2023/03/23 14:16:16;;;;;;;8.87;6.10;;;;;;;;;;5013566;28;20501;-70
2023/03/23 14:18:49;;;;;;;7.10;6.60;;;;;;;;;;5013672;28;20440;-70
2023/03/23 14:21:17;;;;;;;7.23;6.67;;;;;;;;;;5013070;28;20446;-70
2023/03/23 14:23:45;;;;;;;8.70;7.77;;;;;;;;;;5013205;28;20834;-70
2023/03/23 14:26:17;;;;;;;9.07;7.13;;;;;;;;;;5012930;28;20443;-70
2023/03/23 14:28:45;;;;;;;8.10;7.40;;;;;;;;;;5013148;28;20435;-70
2023/03/23 14:31:17;;;;;;;9.10;8.20;;;;;;;;;;5014658;28;20454;-69
2023/03/23 14:33:45;;;;;;;9.50;8.63;;;;;;;;;;5016896;28;20440;-70
2023/03/23 14:36:12;;;;;;;9.77;8.87;;;;;;;;;;5016993;28;20811;-70
2023/03/23 14:38:39;;;;;;;9.03;8.13;;;;;;;;;;5016844;28;20564;-70
2023/03/23 14:41:07;;;;;;;10.03;9.20;;;;;;;;;;5016691;28;20453;-70
2023/03/23 14:43:36;;;;;;;8.87;8.17;;;;;;;;;;5016750;28;20486;-70
2023/03/23 14:46:07;;;;;;;9.63;8.80;;;;;;;;;;5016268;28;20565;-69
2023/03/23 14:48:35;;;;;;;10.40;9.27;;;;;;;;;;5016443;28;20426;-70
2023/03/23 14:51:04;;;;;;;9.90;8.90;;;;;;;;;;5016602;28;20917;-70
2023/03/23 14:53:33;;;;;;;10.57;8.03;;;;;;;;;;5016608;28;20505;-69
2023/03/23 14:56:03;;;;;;;7.83;7.00;;;;;;;;;;5016145;28;20455;-69